createdAt,value
2023-01-28T00:00:54.566Z,20.00
2023-01-28T00:01:58.450Z,19.75
2023-01-28T00:03:02.852Z,20.50
2023-01-28T00:04:07.769Z,18.00
2023-01-28T00:05:12.708Z,19.00
2023-01-28T00:06:17.728Z,19.00
2023-01-28T00:07:21.833Z,19.50
2023-01-28T00:08:26.155Z,20.00
2023-01-28T00:09:30.356Z,19.00
2023-01-28T00:10:35.776Z,19.75
2023-01-28T00:11:40.289Z,20.50
2023-01-28T00:12:44.925Z,21.00
2023-01-28T00:13:49.659Z,22.25
2023-01-28T00:14:53.947Z,20.25
2023-01-28T00:15:58.163Z,21.25
2023-01-28T00:17:02.653Z,21.50
2023-01-28T00:18:06.655Z,21.00
2023-01-28T00:19:19.012Z,21.50
2023-01-28T00:20:23.486Z,20.50
2023-01-28T00:21:28.076Z,19.00
2023-01-28T00:22:33.099Z,19.75
2023-01-28T00:23:37.793Z,20.50
2023-01-28T00:24:41.823Z,20.25
2023-01-28T00:25:46.233Z,20.00
2023-01-28T00:26:50.371Z,19.50
2023-01-28T00:27:54.854Z,19.00
2023-01-28T00:28:58.757Z,20.00
2023-01-28T00:30:03.387Z,22.50
2023-01-28T00:31:07.755Z,21.00
2023-01-28T00:32:11.877Z,20.25
2023-01-28T00:33:20.747Z,20.00
2023-01-28T00:34:25.742Z,20.00
2023-01-28T00:35:29.412Z,20.25
2023-01-28T00:36:33.848Z,22.25
2023-01-28T00:37:38.159Z,20.50
2023-01-28T00:38:42.129Z,21.50
2023-01-28T00:39:46.363Z,20.25
2023-01-28T00:40:50.333Z,20.75
2023-01-28T00:41:55.570Z,21.50
2023-01-28T00:42:59.682Z,22.50
2023-01-28T00:44:04.092Z,20.00
2023-01-28T00:45:08.606Z,19.75
2023-01-28T00:46:13.773Z,21.00
2023-01-28T00:47:20.588Z,21.50
2023-01-28T00:48:24.787Z,21.00
2023-01-28T00:49:28.808Z,19.25
2023-01-28T00:50:33.401Z,20.00
2023-01-28T00:51:37.823Z,20.50
2023-01-28T00:52:42.427Z,19.00
2023-01-28T00:53:46.643Z,20.00
2023-01-28T00:54:51.145Z,19.00
2023-01-28T00:55:55.358Z,19.75
2023-01-28T00:56:59.416Z,21.00
2023-01-28T00:58:03.463Z,22.00
2023-01-28T00:59:07.578Z,23.25
2023-01-28T01:00:13.926Z,21.25
2023-01-28T01:01:18.123Z,21.25
2023-01-28T01:02:22.364Z,20.25
2023-01-28T01:03:26.336Z,19.75
2023-01-28T01:05:51.853Z,20.00
2023-01-28T01:06:56.254Z,22.50
2023-01-28T01:08:00.383Z,21.25
2023-01-28T01:09:06.182Z,19.00
2023-01-28T01:10:10.325Z,20.00
2023-01-28T01:11:14.567Z,22.00
2023-01-28T01:12:19.031Z,20.25
2023-01-28T01:13:23.442Z,19.50
2023-01-28T01:14:28.267Z,18.75
2023-01-28T01:15:32.521Z,19.75
2023-01-28T01:16:36.950Z,21.50
2023-01-28T01:17:40.876Z,22.00
2023-01-28T01:18:47.235Z,22.25
2023-01-28T01:19:51.234Z,21.00
2023-01-28T01:20:55.445Z,20.75
2023-01-28T01:21:59.549Z,21.00
2023-01-28T01:23:03.754Z,23.00
2023-01-28T01:24:08.181Z,21.00
2023-01-28T01:25:14.106Z,18.25
2023-01-28T01:26:18.309Z,18.25
2023-01-28T01:27:22.735Z,19.50
2023-01-28T01:28:27.036Z,18.25
2023-01-28T01:29:31.042Z,20.00
2023-01-28T01:30:35.045Z,21.75
2023-01-28T01:31:39.360Z,21.75
2023-01-28T01:32:43.767Z,21.00
2023-01-28T01:33:47.246Z,18.50
2023-01-28T01:34:51.341Z,18.50
2023-01-28T01:35:54.934Z,20.50
2023-01-28T01:36:58.726Z,18.50
2023-01-28T01:38:02.382Z,18.00
2023-01-28T01:39:06.000Z,17.00
2023-01-28T01:40:09.794Z,16.75
2023-01-28T01:41:13.404Z,18.00
2023-01-28T01:42:17.089Z,18.00
2023-01-28T01:43:20.859Z,17.50
2023-01-28T01:44:24.535Z,19.25
2023-01-28T01:45:28.605Z,18.50
2023-01-28T01:46:32.281Z,18.75
2023-01-28T01:47:36.036Z,17.00
2023-01-28T01:48:39.722Z,18.50
2023-01-28T01:49:43.432Z,17.75
2023-01-28T01:50:47.136Z,18.25
2023-01-28T01:51:50.834Z,17.00
2023-01-28T01:52:54.893Z,16.75
2023-01-28T01:53:58.743Z,17.75
2023-01-28T01:55:02.357Z,17.50
2023-01-28T01:56:11.188Z,18.25
2023-01-28T01:57:25.255Z,17.75
2023-01-28T01:58:28.993Z,17.00
2023-01-28T01:59:32.758Z,17.50
2023-01-28T02:00:36.447Z,15.50
2023-01-28T02:01:40.141Z,14.25
2023-01-28T02:02:43.741Z,15.00
2023-01-28T02:03:47.230Z,13.50
2023-01-28T02:04:53.826Z,12.75
2023-01-28T02:05:57.281Z,12.50
2023-01-28T02:07:00.745Z,12.50
2023-01-28T02:08:06.727Z,12.00
2023-01-28T02:09:10.242Z,11.50
2023-01-28T02:10:13.812Z,12.50
2023-01-28T02:11:17.251Z,13.00
2023-01-28T02:12:20.691Z,11.00
2023-01-28T02:13:24.162Z,12.00
2023-01-28T02:14:31.317Z,11.50
2023-01-28T02:15:32.230Z,10.50
2023-01-28T02:16:35.773Z,9.75
2023-01-28T02:17:39.345Z,9.50
2023-01-28T02:18:43.024Z,10.25
2023-01-28T02:19:46.849Z,9.50
2023-01-28T02:20:50.402Z,10.00
2023-01-28T02:21:54.099Z,9.25
2023-01-28T02:22:57.685Z,8.75
2023-01-28T02:24:01.587Z,8.50
2023-01-28T02:25:05.418Z,8.50
2023-01-28T02:26:09.195Z,7.50
2023-01-28T02:27:12.952Z,8.50
2023-01-28T02:28:16.450Z,7.00
2023-01-28T02:29:19.874Z,7.25
2023-01-28T02:30:24.939Z,7.50
2023-01-28T02:31:28.097Z,7.75
2023-01-28T02:32:31.607Z,8.00
2023-01-28T02:33:35.159Z,6.75
2023-01-28T02:34:38.666Z,6.50
2023-01-28T02:35:42.086Z,6.00
2023-01-28T02:36:45.597Z,5.75
2023-01-28T02:37:48.989Z,6.00
2023-01-28T02:38:52.468Z,5.50
2023-01-28T02:39:55.881Z,5.50
2023-01-28T02:40:59.315Z,4.50
2023-01-28T02:42:03.011Z,5.00
2023-01-28T02:43:06.478Z,5.00
2023-01-28T02:44:09.991Z,4.60
2023-01-28T02:45:13.910Z,4.00
2023-01-28T02:46:17.529Z,3.00
2023-01-28T02:47:21.006Z,3.50
2023-01-28T02:48:24.508Z,4.00
2023-01-28T02:49:28.020Z,4.75
2023-01-28T02:50:31.794Z,5.75
2023-01-28T02:51:35.536Z,7.00
2023-01-28T02:52:39.192Z,5.25
2023-01-28T02:53:42.901Z,5.00
2023-01-28T02:54:46.586Z,4.25
2023-01-28T02:55:50.648Z,4.50
2023-01-28T02:56:54.285Z,4.50
2023-01-28T02:57:58.041Z,5.00
2023-01-28T02:59:01.787Z,5.00
2023-01-28T03:00:05.438Z,4.00
2023-01-28T03:01:09.211Z,6.50
2023-01-28T03:02:12.742Z,6.75
2023-01-28T03:03:16.316Z,4.50
2023-01-28T03:04:19.799Z,3.25
2023-01-28T03:05:23.307Z,4.00
2023-01-28T03:06:26.769Z,4.50
2023-01-28T03:07:33.056Z,3.00
2023-01-28T03:08:36.590Z,2.75
2023-01-28T03:09:40.171Z,4.00
2023-01-28T03:10:46.638Z,4.50
2023-01-28T03:11:50.502Z,5.00
2023-01-28T03:12:54.278Z,5.50
2023-01-28T03:13:58.025Z,3.75
2023-01-28T03:15:01.777Z,3.50
2023-01-28T03:16:05.615Z,3.50
2023-01-28T03:17:09.365Z,4.25
2023-01-28T03:18:13.272Z,4.00
2023-01-28T03:19:16.865Z,3.75
2023-01-28T03:20:20.592Z,3.50
2023-01-28T03:21:24.196Z,3.75
2023-01-28T03:22:27.864Z,4.25
2023-01-28T03:23:31.685Z,2.25
2023-01-28T03:24:35.355Z,3.50
2023-01-28T03:25:39.161Z,5.00
2023-01-28T03:26:43.054Z,4.50
2023-01-28T03:27:46.827Z,4.50
2023-01-28T03:28:50.546Z,4.00
2023-01-28T03:29:54.207Z,4.50
2023-01-28T03:31:06.865Z,4.75
2023-01-28T03:32:10.820Z,4.25
2023-01-28T03:33:14.540Z,4.00
2023-01-28T03:34:18.224Z,3.00
2023-01-28T03:35:22.001Z,4.00
2023-01-28T03:36:25.637Z,4.25
2023-01-28T03:37:29.332Z,5.00
2023-01-28T03:38:33.080Z,5.00
2023-01-28T03:39:36.673Z,4.50
2023-01-28T03:40:40.134Z,4.50
2023-01-28T03:41:43.900Z,4.50
2023-01-28T03:42:47.338Z,4.50
2023-01-28T03:43:50.768Z,4.25
2023-01-28T03:44:54.268Z,5.00
2023-01-28T03:45:57.973Z,4.50
2023-01-28T03:47:01.684Z,4.50
2023-01-28T03:48:05.174Z,4.00
2023-01-28T03:49:08.565Z,3.00
2023-01-28T03:50:11.974Z,3.75
2023-01-28T03:51:15.324Z,3.75
2023-01-28T03:52:18.877Z,3.50
2023-01-28T03:53:22.448Z,3.50
2023-01-28T03:54:26.183Z,4.00
2023-01-28T03:55:29.927Z,5.00
2023-01-28T03:56:33.661Z,5.25
2023-01-28T03:57:37.262Z,6.00
2023-01-28T03:58:40.951Z,3.50
2023-01-28T03:59:45.040Z,4.50
2023-01-28T04:00:48.425Z,4.50
2023-01-28T04:01:51.968Z,5.00
2023-01-28T04:02:55.491Z,4.00
2023-01-28T04:03:59.017Z,3.75
2023-01-28T04:05:02.434Z,3.00
2023-01-28T04:06:05.947Z,5.25
2023-01-28T04:07:09.437Z,5.50
2023-01-28T04:08:12.902Z,5.00
2023-01-28T04:09:16.462Z,4.00
2023-01-28T04:10:19.825Z,4.00
2023-01-28T04:11:23.352Z,4.50
2023-01-28T04:12:26.926Z,5.25
2023-01-28T04:13:30.356Z,3.00
2023-01-28T04:14:33.984Z,3.00
2023-01-28T04:15:37.515Z,3.00
2023-01-28T04:16:41.039Z,3.00
2023-01-28T04:17:44.632Z,3.00
2023-01-28T04:18:48.289Z,3.50
2023-01-28T04:19:51.824Z,3.25
2023-01-28T04:20:55.413Z,2.50
2023-01-28T04:21:59.933Z,3.00
2023-01-28T04:23:03.694Z,2.75
2023-01-28T04:24:07.557Z,3.50
2023-01-28T04:25:11.507Z,3.75
2023-01-28T04:26:15.207Z,4.00
2023-01-28T04:27:18.963Z,3.50
2023-01-28T04:28:22.948Z,2.50
2023-01-28T04:29:26.694Z,4.75
2023-01-28T04:30:30.581Z,3.00
2023-01-28T04:31:34.263Z,2.00
2023-01-28T04:32:37.966Z,2.25
2023-01-28T04:33:41.759Z,2.25
2023-01-28T04:34:45.635Z,2.75
2023-01-28T04:35:49.274Z,4.00
2023-01-28T04:36:52.911Z,2.75
2023-01-28T04:37:56.325Z,3.00
2023-01-28T04:38:59.809Z,3.00
2023-01-28T04:40:03.415Z,3.50
2023-01-28T04:41:06.950Z,4.00
2023-01-28T04:42:10.414Z,4.00
2023-01-28T04:43:13.973Z,4.50
2023-01-28T04:44:17.637Z,4.00
2023-01-28T04:45:21.250Z,3.25
2023-01-28T04:46:24.837Z,3.00
2023-01-28T04:47:28.399Z,4.00
2023-01-28T04:48:31.826Z,3.50
2023-01-28T04:49:35.275Z,4.50
2023-01-28T04:50:39.288Z,3.50
2023-01-28T04:51:42.965Z,3.00
2023-01-28T04:52:46.720Z,4.25
2023-01-28T04:53:50.603Z,4.25
2023-01-28T04:54:54.359Z,3.00
2023-01-28T04:55:58.102Z,3.50
2023-01-28T04:57:01.820Z,3.25
2023-01-28T04:58:05.486Z,3.50
2023-01-28T04:59:09.232Z,3.00
2023-01-28T05:00:12.918Z,4.00
2023-01-28T05:01:16.849Z,4.00
2023-01-28T05:02:20.800Z,3.25
2023-01-28T05:03:24.635Z,3.00
2023-01-28T05:04:28.453Z,3.75
2023-01-28T05:05:32.233Z,2.75
2023-01-28T05:06:36.077Z,2.00
2023-01-28T05:07:39.970Z,3.50
2023-01-28T05:08:43.599Z,3.75
2023-01-28T05:09:47.325Z,3.50
2023-01-28T05:10:50.989Z,3.50
2023-01-28T05:11:54.831Z,5.00
2023-01-28T05:12:58.668Z,4.00
2023-01-28T05:14:02.789Z,3.50
2023-01-28T05:15:06.551Z,3.75
2023-01-28T05:16:10.612Z,3.50
2023-01-28T05:17:14.295Z,6.00
2023-01-28T05:18:17.956Z,5.00
2023-01-28T05:19:21.824Z,4.00
2023-01-28T05:20:25.634Z,4.50
2023-01-28T05:21:29.447Z,5.00
2023-01-28T05:22:33.108Z,4.50
2023-01-28T05:23:36.861Z,3.50
2023-01-28T05:24:40.555Z,3.50
2023-01-28T05:25:44.326Z,4.00
2023-01-28T05:26:47.941Z,3.50
2023-01-28T05:27:51.355Z,4.50
2023-01-28T05:28:54.849Z,3.50
2023-01-28T05:29:58.347Z,4.00
2023-01-28T05:31:01.775Z,5.00
2023-01-28T05:32:05.288Z,4.50
2023-01-28T05:33:08.728Z,4.00
2023-01-28T05:34:12.132Z,4.75
2023-01-28T05:35:15.835Z,5.50
2023-01-28T05:36:19.659Z,4.75
2023-01-28T05:37:23.054Z,4.25
2023-01-28T05:38:26.574Z,4.50
2023-01-28T05:39:30.042Z,4.00
2023-01-28T05:40:33.988Z,2.50
2023-01-28T05:41:37.748Z,3.50
2023-01-28T05:42:41.516Z,4.25
2023-01-28T05:43:45.253Z,4.50
2023-01-28T05:44:49.022Z,4.25
2023-01-28T05:45:52.883Z,4.50
2023-01-28T05:46:56.476Z,3.00
2023-01-28T05:48:00.379Z,2.50
2023-01-28T05:49:04.201Z,4.00
2023-01-28T05:50:07.879Z,4.50
2023-01-28T05:51:11.849Z,3.50
2023-01-28T05:52:15.592Z,2.75
2023-01-28T05:53:19.507Z,3.50
2023-01-28T05:54:23.179Z,4.00
2023-01-28T05:55:26.987Z,4.50
2023-01-28T05:56:30.702Z,5.00
2023-01-28T05:57:34.624Z,4.75
2023-01-28T05:58:38.314Z,4.25
2023-01-28T05:59:41.979Z,3.00
2023-01-28T06:00:45.751Z,5.00
2023-01-28T06:01:49.409Z,5.50
2023-01-28T06:02:54.276Z,5.50
2023-01-28T06:03:58.234Z,5.25
2023-01-28T06:05:01.924Z,5.00
2023-01-28T06:06:05.750Z,5.50
2023-01-28T06:07:09.348Z,6.00
2023-01-28T06:08:13.035Z,5.00
2023-01-28T06:09:17.007Z,5.00
2023-01-28T06:10:20.762Z,8.50
2023-01-28T06:11:24.479Z,6.25
2023-01-28T06:12:28.158Z,3.75
2023-01-28T06:13:31.919Z,4.00
2023-01-28T06:14:35.828Z,5.50
2023-01-28T06:15:39.715Z,5.50
2023-01-28T06:16:43.482Z,7.00
2023-01-28T06:17:47.227Z,6.00
2023-01-28T06:18:51.023Z,5.75
2023-01-28T06:19:55.200Z,5.50
2023-01-28T06:20:58.892Z,4.75
2023-01-28T06:22:02.708Z,5.75
2023-01-28T06:23:06.345Z,4.50
2023-01-28T06:24:10.053Z,4.50
2023-01-28T06:25:13.513Z,6.00
2023-01-28T06:26:17.102Z,5.25
2023-01-28T06:27:20.565Z,5.50
2023-01-28T06:28:23.993Z,5.60
2023-01-28T06:29:27.537Z,5.00
2023-01-28T06:30:31.194Z,5.50
2023-01-28T06:31:34.722Z,6.00
2023-01-28T06:32:39.436Z,4.75
2023-01-28T06:33:43.178Z,4.50
2023-01-28T06:34:46.853Z,6.50
2023-01-28T06:35:50.703Z,7.50
2023-01-28T06:36:54.396Z,8.50
2023-01-28T06:37:58.075Z,6.50
2023-01-28T06:39:01.745Z,5.50
2023-01-28T06:40:05.616Z,6.50
2023-01-28T06:41:09.312Z,5.75
2023-01-28T06:42:12.995Z,4.50
2023-01-28T06:43:16.647Z,5.00
2023-01-28T06:44:20.470Z,6.00
2023-01-28T06:45:24.363Z,5.00
2023-01-28T06:46:28.362Z,4.00
2023-01-28T06:47:32.152Z,4.50
2023-01-28T06:48:35.914Z,6.00
2023-01-28T06:49:39.808Z,5.50
2023-01-28T06:50:43.542Z,6.50
2023-01-28T06:51:47.447Z,7.75
2023-01-28T06:52:51.359Z,7.00
2023-01-28T06:53:55.011Z,6.00
2023-01-28T06:54:58.596Z,7.50
2023-01-28T06:56:02.301Z,6.50
2023-01-28T06:57:06.137Z,5.00
2023-01-28T06:58:10.026Z,6.50
2023-01-28T06:59:13.700Z,6.50
2023-01-28T07:00:17.639Z,5.75
2023-01-28T07:01:21.470Z,4.25
2023-01-28T07:02:27.580Z,5.75
2023-01-28T07:03:30.313Z,5.50
2023-01-28T07:04:34.007Z,5.00
2023-01-28T07:05:37.742Z,5.25
2023-01-28T07:06:41.575Z,4.75
2023-01-28T07:07:45.775Z,6.00
2023-01-28T07:08:49.427Z,5.50
2023-01-28T07:09:53.144Z,5.25
2023-01-28T07:10:57.215Z,5.25
2023-01-28T07:12:00.926Z,3.50
2023-01-28T07:13:04.745Z,4.75
2023-01-28T07:14:08.375Z,7.00
2023-01-28T07:15:12.055Z,6.75
2023-01-28T07:16:15.932Z,6.00
2023-01-28T07:17:19.648Z,6.25
2023-01-28T07:18:23.622Z,6.25
2023-01-28T07:19:27.344Z,6.75
2023-01-28T07:20:31.096Z,5.50
2023-01-28T07:21:34.747Z,5.00
2023-01-28T07:22:38.410Z,5.25
2023-01-28T07:23:42.541Z,6.00
2023-01-28T07:24:45.995Z,5.25
2023-01-28T07:25:49.459Z,4.75
2023-01-28T07:26:52.962Z,4.00
2023-01-28T07:27:56.520Z,4.50
2023-01-28T07:29:00.084Z,7.00
2023-01-28T07:30:03.510Z,7.75
2023-01-28T07:31:07.048Z,6.50
2023-01-28T07:32:10.614Z,5.00
2023-01-28T07:33:14.166Z,5.00
2023-01-28T07:34:17.664Z,6.25
2023-01-28T07:35:21.187Z,7.00
2023-01-28T07:36:24.686Z,6.50
2023-01-28T07:37:28.147Z,6.50
2023-01-28T07:38:31.740Z,7.00
2023-01-28T07:39:35.559Z,6.50
2023-01-28T07:40:39.261Z,7.00
2023-01-28T07:41:42.767Z,7.50
2023-01-28T07:42:46.269Z,6.25
2023-01-28T07:43:49.993Z,5.00
2023-01-28T07:44:53.530Z,6.00
2023-01-28T07:45:57.027Z,6.50
2023-01-28T07:47:00.640Z,7.50
2023-01-28T07:48:04.171Z,7.75
2023-01-28T07:49:07.717Z,8.50
2023-01-28T07:50:11.839Z,8.50
2023-01-28T07:51:15.736Z,8.50
2023-01-28T07:52:19.446Z,7.00
2023-01-28T07:53:23.071Z,7.00
2023-01-28T07:54:26.967Z,7.00
2023-01-28T07:55:31.538Z,7.00
2023-01-28T07:56:35.688Z,6.50
2023-01-28T07:57:39.475Z,5.75
2023-01-28T07:58:43.216Z,7.25
2023-01-28T07:59:46.925Z,7.50
2023-01-28T08:00:50.872Z,10.75
2023-01-28T08:01:55.194Z,9.25
2023-01-28T08:02:59.285Z,8.00
2023-01-28T08:04:03.169Z,8.00
2023-01-28T08:05:07.029Z,6.00
2023-01-28T08:06:10.967Z,7.50
2023-01-28T08:07:14.750Z,8.50
2023-01-28T08:08:18.485Z,8.00
2023-01-28T08:09:22.415Z,9.00
2023-01-28T08:10:26.267Z,7.00
2023-01-28T08:11:30.184Z,6.75
2023-01-28T08:12:33.914Z,8.50
2023-01-28T08:13:37.671Z,6.00
2023-01-28T08:14:41.327Z,7.25
2023-01-28T08:15:45.132Z,8.00
2023-01-28T08:16:49.139Z,7.50
2023-01-28T08:17:53.040Z,7.75
2023-01-28T08:18:56.742Z,7.00
2023-01-28T08:20:00.538Z,8.00
2023-01-28T08:21:04.291Z,7.50
2023-01-28T08:22:08.090Z,8.00
2023-01-28T08:23:11.771Z,8.75
2023-01-28T08:24:15.578Z,8.00
2023-01-28T08:25:19.346Z,8.50
2023-01-28T08:26:23.129Z,9.75
2023-01-28T08:27:27.176Z,9.50
2023-01-28T08:28:31.015Z,9.00
2023-01-28T08:29:34.722Z,7.50
2023-01-28T08:30:38.639Z,7.50
2023-01-28T08:31:42.839Z,8.00
2023-01-28T08:32:46.782Z,7.75
2023-01-28T08:33:50.584Z,7.25
2023-01-28T08:34:54.309Z,7.00
2023-01-28T08:35:58.051Z,9.50
2023-01-28T08:37:01.756Z,8.75
2023-01-28T08:38:05.603Z,9.25
2023-01-28T08:39:09.341Z,9.50
2023-01-28T08:40:13.531Z,9.00
2023-01-28T08:41:17.998Z,7.00
2023-01-28T08:42:21.660Z,8.00
2023-01-28T08:43:25.545Z,9.00
2023-01-28T08:44:29.244Z,11.25
2023-01-28T08:45:32.952Z,11.00
2023-01-28T08:46:36.803Z,10.00
2023-01-28T08:47:40.475Z,8.75
2023-01-28T08:48:44.327Z,9.25
2023-01-28T08:49:48.286Z,8.75
2023-01-28T08:50:52.070Z,9.50
2023-01-28T08:51:55.676Z,8.75
2023-01-28T08:52:59.315Z,8.50
2023-01-28T08:54:03.414Z,8.50
2023-01-28T08:55:07.053Z,10.00
2023-01-28T08:56:10.534Z,10.50
2023-01-28T08:57:13.992Z,9.25
2023-01-28T08:58:17.488Z,10.50
2023-01-28T08:59:21.298Z,9.50
2023-01-28T09:00:24.904Z,10.00
2023-01-28T09:01:28.460Z,8.25
2023-01-28T09:02:32.457Z,8.00
2023-01-28T09:03:36.301Z,8.25
2023-01-28T09:04:39.842Z,8.25
2023-01-28T09:05:43.374Z,9.50
2023-01-28T09:06:47.044Z,8.75
2023-01-28T09:07:50.486Z,8.50
2023-01-28T09:08:53.921Z,8.75
2023-01-28T09:09:57.474Z,9.50
2023-01-28T09:11:00.935Z,9.25
2023-01-28T09:12:04.582Z,7.75
2023-01-28T09:13:08.090Z,9.25
2023-01-28T09:14:11.796Z,9.00
2023-01-28T09:15:15.969Z,8.75
2023-01-28T09:16:19.592Z,9.50
2023-01-28T09:17:23.099Z,7.50
2023-01-28T09:18:26.631Z,7.50
2023-01-28T09:19:30.245Z,8.50
2023-01-28T09:20:33.852Z,8.25
2023-01-28T09:21:38.667Z,7.50
2023-01-28T09:22:42.393Z,8.75
2023-01-28T09:23:46.261Z,9.75
2023-01-28T09:24:49.672Z,9.50
2023-01-28T09:25:53.550Z,10.50
2023-01-28T09:26:57.115Z,9.00
2023-01-28T09:28:00.998Z,8.50
2023-01-28T09:29:04.773Z,9.00
2023-01-28T09:30:08.601Z,10.00
2023-01-28T09:31:12.598Z,8.75
2023-01-28T09:32:16.359Z,9.00
2023-01-28T09:33:20.048Z,8.50
2023-01-28T09:34:23.850Z,7.75
2023-01-28T09:35:27.554Z,7.25
2023-01-28T09:36:31.803Z,7.50
2023-01-28T09:37:35.507Z,8.00
2023-01-28T09:38:39.270Z,8.00
2023-01-28T09:39:42.981Z,8.00
2023-01-28T09:40:46.668Z,6.25
2023-01-28T09:41:50.511Z,8.50
2023-01-28T09:42:54.125Z,9.50
2023-01-28T09:43:57.909Z,7.50
2023-01-28T09:45:01.667Z,6.75
2023-01-28T09:46:05.463Z,9.50
2023-01-28T09:47:09.336Z,10.00
2023-01-28T09:48:13.186Z,7.75
2023-01-28T09:49:17.121Z,6.75
2023-01-28T09:50:20.952Z,7.25
2023-01-28T09:51:24.555Z,9.00
2023-01-28T09:52:28.407Z,8.00
2023-01-28T09:53:32.231Z,7.00
2023-01-28T09:54:36.037Z,9.00
2023-01-28T09:55:39.800Z,11.00
2023-01-28T09:56:43.676Z,9.00
2023-01-28T09:57:47.539Z,6.50
2023-01-28T09:58:51.367Z,8.00
2023-01-28T09:59:55.105Z,8.75
2023-01-28T10:00:58.687Z,9.00
2023-01-28T10:02:02.552Z,7.25
2023-01-28T10:03:06.548Z,6.00
2023-01-28T10:04:10.834Z,9.75
2023-01-28T10:05:14.717Z,14.75
2023-01-28T10:06:18.590Z,11.50
2023-01-28T10:07:22.293Z,8.75
2023-01-28T10:08:26.054Z,9.50
2023-01-28T10:09:29.757Z,8.50
2023-01-28T10:10:33.466Z,7.00
2023-01-28T10:11:37.319Z,9.00
2023-01-28T10:12:41.192Z,8.00
2023-01-28T10:13:45.132Z,8.25
2023-01-28T10:14:48.862Z,8.50
2023-01-28T10:15:52.600Z,9.00
2023-01-28T10:16:56.366Z,9.00
2023-01-28T10:18:15.719Z,7.50
2023-01-28T10:19:05.013Z,9.00
2023-01-28T10:20:08.717Z,9.50
2023-01-28T10:21:12.413Z,9.50
2023-01-28T10:22:16.127Z,8.25
2023-01-28T10:23:19.931Z,11.50
2023-01-28T10:24:25.991Z,10.50
2023-01-28T10:25:29.163Z,10.50
2023-01-28T10:26:32.935Z,9.50
2023-01-28T10:27:36.873Z,7.50
2023-01-28T10:28:40.747Z,12.50
2023-01-28T10:29:44.683Z,12.50
2023-01-28T10:30:48.322Z,8.25
2023-01-28T10:31:52.063Z,7.50
2023-01-28T10:32:55.742Z,9.25
2023-01-28T10:33:59.590Z,9.50
2023-01-28T10:35:03.587Z,9.75
2023-01-28T10:36:07.155Z,8.00
2023-01-28T10:37:10.793Z,7.50
2023-01-28T10:38:14.619Z,9.50
2023-01-28T10:39:18.029Z,8.25
2023-01-28T10:40:21.531Z,9.50
2023-01-28T10:41:25.008Z,9.00
2023-01-28T10:42:28.528Z,9.50
2023-01-28T10:43:32.192Z,10.75
2023-01-28T10:44:35.595Z,9.50
2023-01-28T10:45:39.469Z,8.00
2023-01-28T10:46:42.889Z,7.75
2023-01-28T10:47:46.252Z,7.75
2023-01-28T10:48:49.742Z,8.00
2023-01-28T10:49:53.289Z,8.75
2023-01-28T10:50:56.841Z,9.00
2023-01-28T10:52:00.271Z,9.25
2023-01-28T10:53:03.910Z,10.00
2023-01-28T10:54:07.419Z,9.50
2023-01-28T10:55:10.990Z,8.50
2023-01-28T10:56:15.004Z,8.00
2023-01-28T10:57:27.165Z,7.50
2023-01-28T10:58:30.983Z,7.00
2023-01-28T10:59:34.697Z,8.25
2023-01-28T11:00:38.561Z,7.75
2023-01-28T11:01:44.715Z,7.75
2023-01-28T11:02:47.287Z,9.00
2023-01-28T11:03:50.954Z,10.00
2023-01-28T11:04:54.929Z,8.00
2023-01-28T11:05:58.695Z,9.75
2023-01-28T11:07:02.538Z,10.00
2023-01-28T11:08:06.232Z,10.00
2023-01-28T11:09:09.869Z,8.00
2023-01-28T11:10:14.044Z,7.00
2023-01-28T11:11:18.085Z,8.25
2023-01-28T11:12:22.021Z,8.00
2023-01-28T11:13:25.681Z,8.50
2023-01-28T11:14:29.463Z,9.50
2023-01-28T11:15:33.162Z,8.00
2023-01-28T11:16:36.977Z,9.50
2023-01-28T11:17:40.839Z,10.50
2023-01-28T11:18:44.663Z,8.50
2023-01-28T11:19:48.373Z,8.50
2023-01-28T11:20:52.049Z,9.00
2023-01-28T11:21:55.771Z,9.25
2023-01-28T11:22:59.939Z,9.00
2023-01-28T11:24:03.699Z,9.00
2023-01-28T11:25:07.582Z,8.50
2023-01-28T11:26:11.263Z,9.00
2023-01-28T11:27:14.943Z,9.50
2023-01-28T11:28:18.889Z,10.00
2023-01-28T11:29:22.747Z,8.50
2023-01-28T11:30:26.517Z,7.00
2023-01-28T11:31:30.297Z,9.00
2023-01-28T11:32:33.980Z,8.25
2023-01-28T11:33:37.791Z,7.00
2023-01-28T11:34:41.493Z,7.00
2023-01-28T11:35:45.252Z,8.75
2023-01-28T11:36:48.955Z,9.00
2023-01-28T11:37:52.735Z,7.25
2023-01-28T11:38:56.512Z,6.50
2023-01-28T11:40:00.142Z,7.75
2023-01-28T11:41:03.906Z,8.50
2023-01-28T11:42:07.505Z,8.00
2023-01-28T11:43:11.315Z,7.75
2023-01-28T11:44:15.203Z,7.75
2023-01-28T11:45:18.890Z,10.00
2023-01-28T11:46:22.821Z,9.00
2023-01-28T11:47:26.698Z,8.25
2023-01-28T11:48:30.463Z,10.50
2023-01-28T11:49:34.085Z,9.75
2023-01-28T11:50:38.080Z,9.75
2023-01-28T11:51:41.853Z,11.25
2023-01-28T11:53:04.853Z,10.25
2023-01-28T11:53:50.356Z,9.50
2023-01-28T11:54:54.617Z,9.00
2023-01-28T11:55:58.215Z,8.50
2023-01-28T11:57:01.935Z,8.00
2023-01-28T11:58:05.968Z,9.00
2023-01-28T11:59:09.679Z,8.50
2023-01-28T12:00:13.742Z,9.00
2023-01-28T12:01:18.116Z,10.50
2023-01-28T12:02:21.739Z,8.75
2023-01-28T12:03:25.669Z,8.75
2023-01-28T12:04:29.383Z,8.25
2023-01-28T12:05:33.500Z,8.50
2023-01-28T12:06:37.090Z,10.00
2023-01-28T12:07:40.820Z,10.00
2023-01-28T12:08:44.202Z,8.75
2023-01-28T12:09:47.725Z,6.75
2023-01-28T12:10:51.078Z,8.25
2023-01-28T12:11:54.504Z,9.75
2023-01-28T12:12:57.893Z,10.00
2023-01-28T12:14:01.398Z,9.00
2023-01-28T12:15:04.796Z,10.50
2023-01-28T12:16:08.466Z,10.50
2023-01-28T12:17:12.166Z,9.25
2023-01-28T12:18:15.639Z,9.50
2023-01-28T12:19:18.984Z,9.00
2023-01-28T12:20:22.486Z,8.80
2023-01-28T12:21:26.093Z,8.75
2023-01-28T12:22:29.699Z,10.75
2023-01-28T12:23:33.202Z,9.50
2023-01-28T12:24:36.824Z,10.50
2023-01-28T12:25:40.421Z,10.75
2023-01-28T12:26:44.686Z,7.50
2023-01-28T12:27:48.421Z,7.00
2023-01-28T12:28:52.112Z,8.00
2023-01-28T12:29:55.808Z,8.00
2023-01-28T12:30:59.604Z,8.50
2023-01-28T12:32:03.622Z,9.00
2023-01-28T12:33:07.368Z,9.00
2023-01-28T12:34:10.860Z,7.00
2023-01-28T12:35:14.296Z,6.00
2023-01-28T12:36:18.090Z,5.75
2023-01-28T12:37:21.731Z,8.50
2023-01-28T12:38:25.592Z,7.50
2023-01-28T12:39:29.284Z,6.25
2023-01-28T12:40:33.709Z,7.75
2023-01-28T12:41:37.528Z,6.50
2023-01-28T12:42:41.360Z,6.75
2023-01-28T12:43:45.079Z,6.75
2023-01-28T12:44:48.808Z,6.50
2023-01-28T12:45:52.677Z,8.75
2023-01-28T12:46:56.501Z,9.00
2023-01-28T12:48:00.330Z,10.00
2023-01-28T12:49:03.997Z,9.75
2023-01-28T12:50:07.676Z,9.00
2023-01-28T12:51:11.367Z,9.00
2023-01-28T12:52:15.146Z,9.50
2023-01-28T12:53:19.052Z,8.50
2023-01-28T12:54:22.809Z,7.75
2023-01-28T12:55:26.758Z,8.50
2023-01-28T12:56:30.479Z,8.00
2023-01-28T12:57:34.053Z,9.00
2023-01-28T12:58:37.639Z,10.25
2023-01-28T12:59:41.302Z,9.75
2023-01-28T13:00:44.932Z,7.25
2023-01-28T13:01:48.613Z,8.25
2023-01-28T13:02:52.352Z,9.50
2023-01-28T13:03:56.252Z,7.75
2023-01-28T13:04:59.943Z,9.50
2023-01-28T13:06:03.741Z,9.50
2023-01-28T13:07:07.421Z,10.00
2023-01-28T13:08:11.014Z,10.00
2023-01-28T13:09:14.756Z,10.00
2023-01-28T13:10:18.531Z,10.00
2023-01-28T13:11:22.265Z,9.50
2023-01-28T13:12:25.857Z,7.50
2023-01-28T13:13:29.674Z,6.75
2023-01-28T13:14:33.606Z,10.00
2023-01-28T13:15:37.269Z,9.50
2023-01-28T13:16:41.139Z,9.00
2023-01-28T13:17:44.891Z,9.50
2023-01-28T13:18:48.631Z,7.00
2023-01-28T13:19:52.074Z,5.00
2023-01-28T13:20:55.872Z,6.80
2023-01-28T13:21:59.677Z,8.00
2023-01-28T13:23:03.427Z,7.25
2023-01-28T13:24:07.101Z,8.00
2023-01-28T13:25:11.347Z,10.25
2023-01-28T13:26:15.092Z,10.00
2023-01-28T13:27:18.737Z,7.00
2023-01-28T13:28:22.447Z,7.00
2023-01-28T13:29:26.145Z,8.25
2023-01-28T13:30:29.964Z,9.00
2023-01-28T13:31:33.716Z,10.00
2023-01-28T13:32:37.478Z,12.25
2023-01-28T13:33:41.120Z,11.50
2023-01-28T13:34:44.945Z,9.50
2023-01-28T13:35:48.907Z,8.25
2023-01-28T13:36:52.733Z,6.00
2023-01-28T13:37:56.358Z,8.00
2023-01-28T13:39:00.270Z,8.00
2023-01-28T13:40:04.019Z,10.00
2023-01-28T13:41:07.645Z,9.00
2023-01-28T13:42:11.417Z,7.50
2023-01-28T13:43:15.137Z,7.25
2023-01-28T13:44:18.839Z,7.50
2023-01-28T13:45:22.522Z,8.50
2023-01-28T13:46:26.200Z,7.50
2023-01-28T13:47:29.955Z,7.50
2023-01-28T13:48:33.635Z,9.75
2023-01-28T13:49:37.213Z,8.50
2023-01-28T13:50:40.963Z,8.00
2023-01-28T13:51:44.779Z,8.75
2023-01-28T13:52:48.473Z,9.00
2023-01-28T13:53:52.103Z,9.50
2023-01-28T13:54:55.747Z,7.00
2023-01-28T13:55:59.509Z,9.00
2023-01-28T13:57:03.299Z,11.00
2023-01-28T13:58:07.033Z,9.75
2023-01-28T13:59:10.607Z,9.50
2023-01-28T14:00:14.234Z,8.50
2023-01-28T14:01:18.182Z,9.50
2023-01-28T14:02:21.687Z,8.00
2023-01-28T14:03:25.109Z,8.50
2023-01-28T14:07:02.551Z,9.00
2023-01-28T14:08:06.285Z,9.50